sensor_id;sensor_type;location;lat;lon;timestamp;temperature;humidity
35962;DHT22;22044;48.298;10.008;2023-08-08T00:00:17;12.10;99.90
35962;DHT22;22044;48.298;10.008;2023-08-08T00:03:04;12.10;99.90
35962;DHT22;22044;48.298;10.008;2023-08-08T00:05:49;12.10;99.90
35962;DHT22;22044;48.298;10.008;2023-08-08T00:08:36;12.10;99.90
35962;DHT22;22044;48.298;10.008;2023-08-08T00:11:21;11.90;99.90
35962;DHT22;22044;48.298;10.008;2023-08-08T00:14:08;11.80;99.90
35962;DHT22;22044;48.298;10.008;2023-08-08T00:16:54;11.50;99.90
35962;DHT22;22044;48.298;10.008;2023-08-08T00:19:39;11.40;99.90
35962;DHT22;22044;48.298;10.008;2023-08-08T00:22:25;11.30;99.90
35962;DHT22;22044;48.298;10.008;2023-08-08T00:25:10;11.40;99.90
35962;DHT22;22044;48.298;10.008;2023-08-08T00:27:56;11.40;99.90
35962;DHT22;22044;48.298;10.008;2023-08-08T00:30:43;11.50;99.90
35962;DHT22;22044;48.298;10.008;2023-08-08T00:33:28;11.50;99.90
35962;DHT22;22044;48.298;10.008;2023-08-08T00:36:14;11.40;99.90
35962;DHT22;22044;48.298;10.008;2023-08-08T00:38:59;11.50;99.90
35962;DHT22;22044;48.298;10.008;2023-08-08T00:41:46;11.60;99.90
35962;DHT22;22044;48.298;10.008;2023-08-08T00:44:33;11.60;99.90
35962;DHT22;22044;48.298;10.008;2023-08-08T00:47:20;11.70;99.90
35962;DHT22;22044;48.298;10.008;2023-08-08T00:50:07;11.80;99.90
35962;DHT22;22044;48.298;10.008;2023-08-08T00:52:54;11.90;99.90
35962;DHT22;22044;48.298;10.008;2023-08-08T00:55:39;11.90;99.90
35962;DHT22;22044;48.298;10.008;2023-08-08T00:58:25;11.90;99.90
35962;DHT22;22044;48.298;10.008;2023-08-08T01:01:11;12.00;99.90
35962;DHT22;22044;48.298;10.008;2023-08-08T01:03:58;12.00;99.90
35962;DHT22;22044;48.298;10.008;2023-08-08T01:06:51;12.00;99.90
35962;DHT22;22044;48.298;10.008;2023-08-08T01:09:45;12.00;99.90
35962;DHT22;22044;48.298;10.008;2023-08-08T01:12:31;12.00;99.90
35962;DHT22;22044;48.298;10.008;2023-08-08T01:15:17;12.00;99.90
35962;DHT22;22044;48.298;10.008;2023-08-08T01:18:05;12.00;99.90
35962;DHT22;22044;48.298;10.008;2023-08-08T01:20:52;12.00;99.90
35962;DHT22;22044;48.298;10.008;2023-08-08T01:23:43;12.00;99.90
35962;DHT22;22044;48.298;10.008;2023-08-08T01:26:32;11.90;99.90
35962;DHT22;22044;48.298;10.008;2023-08-08T01:29:18;11.90;99.90
35962;DHT22;22044;48.298;10.008;2023-08-08T01:32:04;11.90;99.90
35962;DHT22;22044;48.298;10.008;2023-08-08T01:34:49;11.90;99.90
35962;DHT22;22044;48.298;10.008;2023-08-08T01:37:39;11.90;99.90
35962;DHT22;22044;48.298;10.008;2023-08-08T01:40:25;11.80;99.90
35962;DHT22;22044;48.298;10.008;2023-08-08T01:43:14;11.80;99.90
35962;DHT22;22044;48.298;10.008;2023-08-08T01:46:00;11.80;99.90
35962;DHT22;22044;48.298;10.008;2023-08-08T01:48:47;11.90;99.90
35962;DHT22;22044;48.298;10.008;2023-08-08T01:51:34;11.90;99.90
35962;DHT22;22044;48.298;10.008;2023-08-08T01:54:20;11.90;99.90
35962;DHT22;22044;48.298;10.008;2023-08-08T01:57:06;12.00;99.90
35962;DHT22;22044;48.298;10.008;2023-08-08T01:59:52;11.90;99.90
35962;DHT22;22044;48.298;10.008;2023-08-08T02:02:38;11.90;99.90
35962;DHT22;22044;48.298;10.008;2023-08-08T02:05:25;11.90;99.90
35962;DHT22;22044;48.298;10.008;2023-08-08T02:08:10;11.90;99.90
35962;DHT22;22044;48.298;10.008;2023-08-08T02:10:56;11.90;99.90
35962;DHT22;22044;48.298;10.008;2023-08-08T02:13:42;11.90;99.90
35962;DHT22;22044;48.298;10.008;2023-08-08T02:16:29;11.90;99.90
35962;DHT22;22044;48.298;10.008;2023-08-08T02:19:14;11.90;99.90
35962;DHT22;22044;48.298;10.008;2023-08-08T02:22:00;11.80;99.90
35962;DHT22;22044;48.298;10.008;2023-08-08T02:24:46;11.70;99.90
35962;DHT22;22044;48.298;10.008;2023-08-08T02:27:32;11.80;99.90
35962;DHT22;22044;48.298;10.008;2023-08-08T02:30:17;11.60;99.90
35962;DHT22;22044;48.298;10.008;2023-08-08T02:33:04;11.60;99.90
35962;DHT22;22044;48.298;10.008;2023-08-08T02:35:50;11.70;99.90
35962;DHT22;22044;48.298;10.008;2023-08-08T02:38:35;11.80;99.90
35962;DHT22;22044;48.298;10.008;2023-08-08T02:41:21;11.80;99.90
35962;DHT22;22044;48.298;10.008;2023-08-08T02:44:08;11.90;99.90
35962;DHT22;22044;48.298;10.008;2023-08-08T02:46:56;11.90;99.90
35962;DHT22;22044;48.298;10.008;2023-08-08T02:49:43;12.00;99.90
35962;DHT22;22044;48.298;10.008;2023-08-08T02:52:30;12.00;99.90
35962;DHT22;22044;48.298;10.008;2023-08-08T02:55:16;12.00;99.90
35962;DHT22;22044;48.298;10.008;2023-08-08T02:58:06;12.00;99.90
35962;DHT22;22044;48.298;10.008;2023-08-08T03:00:51;11.90;99.90
35962;DHT22;22044;48.298;10.008;2023-08-08T03:03:38;11.70;99.90
35962;DHT22;22044;48.298;10.008;2023-08-08T03:06:25;11.60;99.90
35962;DHT22;22044;48.298;10.008;2023-08-08T03:09:10;11.60;99.90
35962;DHT22;22044;48.298;10.008;2023-08-08T03:11:57;11.60;99.90
35962;DHT22;22044;48.298;10.008;2023-08-08T03:14:43;11.60;99.90
35962;DHT22;22044;48.298;10.008;2023-08-08T03:17:29;11.70;99.90
35962;DHT22;22044;48.298;10.008;2023-08-08T03:20:15;11.60;99.90
35962;DHT22;22044;48.298;10.008;2023-08-08T03:23:02;11.60;99.90
35962;DHT22;22044;48.298;10.008;2023-08-08T03:25:47;11.60;99.90
35962;DHT22;22044;48.298;10.008;2023-08-08T03:28:34;11.70;99.90
35962;DHT22;22044;48.298;10.008;2023-08-08T03:31:20;11.70;99.90
35962;DHT22;22044;48.298;10.008;2023-08-08T03:34:06;11.70;99.90
35962;DHT22;22044;48.298;10.008;2023-08-08T03:36:52;11.70;99.90
35962;DHT22;22044;48.298;10.008;2023-08-08T03:39:39;11.70;99.90
35962;DHT22;22044;48.298;10.008;2023-08-08T03:42:25;11.80;99.90
35962;DHT22;22044;48.298;10.008;2023-08-08T03:45:11;11.70;99.90
35962;DHT22;22044;48.298;10.008;2023-08-08T03:47:57;11.70;99.90
35962;DHT22;22044;48.298;10.008;2023-08-08T03:50:42;11.70;99.90
35962;DHT22;22044;48.298;10.008;2023-08-08T03:53:28;11.60;99.90
35962;DHT22;22044;48.298;10.008;2023-08-08T03:56:15;11.50;99.90
35962;DHT22;22044;48.298;10.008;2023-08-08T03:59:01;11.60;99.90
35962;DHT22;22044;48.298;10.008;2023-08-08T04:01:47;11.60;99.90
35962;DHT22;22044;48.298;10.008;2023-08-08T04:04:33;11.70;99.90
35962;DHT22;22044;48.298;10.008;2023-08-08T04:07:18;11.60;99.90
35962;DHT22;22044;48.298;10.008;2023-08-08T04:10:05;11.50;99.90
35962;DHT22;22044;48.298;10.008;2023-08-08T04:12:51;11.40;99.90
35962;DHT22;22044;48.298;10.008;2023-08-08T04:15:37;11.40;99.90
35962;DHT22;22044;48.298;10.008;2023-08-08T04:18:24;11.40;99.90
35962;DHT22;22044;48.298;10.008;2023-08-08T04:21:09;11.50;99.90
35962;DHT22;22044;48.298;10.008;2023-08-08T04:23:55;11.40;99.90
35962;DHT22;22044;48.298;10.008;2023-08-08T04:26:41;11.10;99.90
35962;DHT22;22044;48.298;10.008;2023-08-08T04:29:28;11.10;99.90
35962;DHT22;22044;48.298;10.008;2023-08-08T04:32:14;11.00;99.90
35962;DHT22;22044;48.298;10.008;2023-08-08T04:35:00;11.10;99.90
35962;DHT22;22044;48.298;10.008;2023-08-08T04:37:45;11.20;99.90
35962;DHT22;22044;48.298;10.008;2023-08-08T04:40:31;11.30;99.90
35962;DHT22;22044;48.298;10.008;2023-08-08T04:43:17;11.10;99.90
35962;DHT22;22044;48.298;10.008;2023-08-08T04:46:05;11.20;99.90
35962;DHT22;22044;48.298;10.008;2023-08-08T04:48:51;11.20;99.90
35962;DHT22;22044;48.298;10.008;2023-08-08T04:51:37;11.00;99.90
35962;DHT22;22044;48.298;10.008;2023-08-08T04:54:22;11.00;99.90
35962;DHT22;22044;48.298;10.008;2023-08-08T04:57:08;10.90;99.90
35962;DHT22;22044;48.298;10.008;2023-08-08T04:59:53;11.00;99.90
35962;DHT22;22044;48.298;10.008;2023-08-08T05:02:40;11.10;99.90
35962;DHT22;22044;48.298;10.008;2023-08-08T05:05:26;11.10;99.90
35962;DHT22;22044;48.298;10.008;2023-08-08T05:08:11;11.20;99.90
35962;DHT22;22044;48.298;10.008;2023-08-08T05:10:57;11.30;99.90
35962;DHT22;22044;48.298;10.008;2023-08-08T05:13:43;11.50;99.90
35962;DHT22;22044;48.298;10.008;2023-08-08T05:16:28;11.40;99.90
35962;DHT22;22044;48.298;10.008;2023-08-08T05:19:15;11.30;99.90
35962;DHT22;22044;48.298;10.008;2023-08-08T05:22:01;11.30;99.90
35962;DHT22;22044;48.298;10.008;2023-08-08T05:24:46;11.20;99.90
35962;DHT22;22044;48.298;10.008;2023-08-08T05:27:32;11.30;99.90
35962;DHT22;22044;48.298;10.008;2023-08-08T05:30:17;11.40;99.90
35962;DHT22;22044;48.298;10.008;2023-08-08T05:33:03;11.40;99.90
35962;DHT22;22044;48.298;10.008;2023-08-08T05:35:50;11.50;99.90
35962;DHT22;22044;48.298;10.008;2023-08-08T05:38:36;11.50;99.90
35962;DHT22;22044;48.298;10.008;2023-08-08T05:41:21;11.50;99.90
35962;DHT22;22044;48.298;10.008;2023-08-08T05:44:07;11.60;99.90
35962;DHT22;22044;48.298;10.008;2023-08-08T05:46:53;11.60;99.90
35962;DHT22;22044;48.298;10.008;2023-08-08T05:49:39;11.70;99.90
35962;DHT22;22044;48.298;10.008;2023-08-08T05:52:27;11.80;99.90
35962;DHT22;22044;48.298;10.008;2023-08-08T05:55:14;11.90;99.90
35962;DHT22;22044;48.298;10.008;2023-08-08T05:57:59;12.00;99.90
35962;DHT22;22044;48.298;10.008;2023-08-08T06:00:44;12.20;99.90
35962;DHT22;22044;48.298;10.008;2023-08-08T06:03:30;12.20;99.90
35962;DHT22;22044;48.298;10.008;2023-08-08T06:06:15;12.40;99.90
35962;DHT22;22044;48.298;10.008;2023-08-08T06:09:02;12.40;99.90
35962;DHT22;22044;48.298;10.008;2023-08-08T06:11:48;12.50;99.90
35962;DHT22;22044;48.298;10.008;2023-08-08T06:14:33;12.60;99.90
35962;DHT22;22044;48.298;10.008;2023-08-08T06:17:19;12.60;99.90
35962;DHT22;22044;48.298;10.008;2023-08-08T06:20:08;12.60;99.90
35962;DHT22;22044;48.298;10.008;2023-08-08T06:22:55;12.70;99.90
35962;DHT22;22044;48.298;10.008;2023-08-08T06:25:42;12.70;99.90
35962;DHT22;22044;48.298;10.008;2023-08-08T06:28:27;12.80;99.90
35962;DHT22;22044;48.298;10.008;2023-08-08T06:31:14;12.90;99.90
35962;DHT22;22044;48.298;10.008;2023-08-08T06:34:00;12.90;99.90
35962;DHT22;22044;48.298;10.008;2023-08-08T06:36:45;12.90;99.90
35962;DHT22;22044;48.298;10.008;2023-08-08T06:39:32;13.00;99.90
35962;DHT22;22044;48.298;10.008;2023-08-08T06:42:20;13.10;99.90
35962;DHT22;22044;48.298;10.008;2023-08-08T06:45:13;13.20;99.90
35962;DHT22;22044;48.298;10.008;2023-08-08T06:47:58;13.30;99.90
35962;DHT22;22044;48.298;10.008;2023-08-08T06:50:44;13.50;99.90
35962;DHT22;22044;48.298;10.008;2023-08-08T06:53:30;13.50;99.90
35962;DHT22;22044;48.298;10.008;2023-08-08T06:56:15;13.60;99.90
35962;DHT22;22044;48.298;10.008;2023-08-08T06:59:02;13.70;99.90
35962;DHT22;22044;48.298;10.008;2023-08-08T07:01:47;13.80;99.90
35962;DHT22;22044;48.298;10.008;2023-08-08T07:04:33;13.90;99.90
35962;DHT22;22044;48.298;10.008;2023-08-08T07:07:19;14.00;99.90
35962;DHT22;22044;48.298;10.008;2023-08-08T07:10:05;14.00;99.90
35962;DHT22;22044;48.298;10.008;2023-08-08T07:12:51;14.20;99.90
35962;DHT22;22044;48.298;10.008;2023-08-08T07:15:38;14.30;99.90
35962;DHT22;22044;48.298;10.008;2023-08-08T07:18:23;14.40;99.90
35962;DHT22;22044;48.298;10.008;2023-08-08T07:21:09;14.40;99.90
35962;DHT22;22044;48.298;10.008;2023-08-08T07:23:54;14.60;99.90
35962;DHT22;22044;48.298;10.008;2023-08-08T07:26:41;14.70;99.90
35962;DHT22;22044;48.298;10.008;2023-08-08T07:29:27;14.80;99.90
35962;DHT22;22044;48.298;10.008;2023-08-08T07:32:14;14.90;99.90
35962;DHT22;22044;48.298;10.008;2023-08-08T07:35:00;15.00;99.90
35962;DHT22;22044;48.298;10.008;2023-08-08T07:37:49;15.20;99.90
35962;DHT22;22044;48.298;10.008;2023-08-08T07:40:35;15.40;99.90
35962;DHT22;22044;48.298;10.008;2023-08-08T07:43:21;15.40;99.90
35962;DHT22;22044;48.298;10.008;2023-08-08T07:46:07;15.50;99.90
35962;DHT22;22044;48.298;10.008;2023-08-08T07:48:54;15.60;99.90
35962;DHT22;22044;48.298;10.008;2023-08-08T07:51:39;15.80;99.90
35962;DHT22;22044;48.298;10.008;2023-08-08T07:54:25;15.90;99.90
35962;DHT22;22044;48.298;10.008;2023-08-08T07:57:10;16.00;99.90
35962;DHT22;22044;48.298;10.008;2023-08-08T07:59:56;16.00;99.90
35962;DHT22;22044;48.298;10.008;2023-08-08T08:02:43;16.10;99.90
35962;DHT22;22044;48.298;10.008;2023-08-08T08:05:30;16.10;99.90
35962;DHT22;22044;48.298;10.008;2023-08-08T08:08:16;16.30;99.90
35962;DHT22;22044;48.298;10.008;2023-08-08T08:11:02;16.40;99.90
35962;DHT22;22044;48.298;10.008;2023-08-08T08:13:47;16.50;99.90
35962;DHT22;22044;48.298;10.008;2023-08-08T08:16:33;16.60;99.90
35962;DHT22;22044;48.298;10.008;2023-08-08T08:19:19;16.70;99.90
35962;DHT22;22044;48.298;10.008;2023-08-08T08:22:06;16.70;99.90
35962;DHT22;22044;48.298;10.008;2023-08-08T08:24:52;16.70;99.90
35962;DHT22;22044;48.298;10.008;2023-08-08T08:27:38;16.90;99.90
35962;DHT22;22044;48.298;10.008;2023-08-08T08:30:23;16.90;99.90
35962;DHT22;22044;48.298;10.008;2023-08-08T08:33:11;17.00;99.90
35962;DHT22;22044;48.298;10.008;2023-08-08T08:35:56;17.10;99.90
35962;DHT22;22044;48.298;10.008;2023-08-08T08:38:43;17.30;99.90
35962;DHT22;22044;48.298;10.008;2023-08-08T08:41:31;17.40;99.90
35962;DHT22;22044;48.298;10.008;2023-08-08T08:44:21;17.50;99.90
35962;DHT22;22044;48.298;10.008;2023-08-08T08:47:08;17.60;99.90
35962;DHT22;22044;48.298;10.008;2023-08-08T08:49:57;17.70;99.90
35962;DHT22;22044;48.298;10.008;2023-08-08T08:52:43;17.70;99.90
35962;DHT22;22044;48.298;10.008;2023-08-08T08:55:30;17.70;99.90
35962;DHT22;22044;48.298;10.008;2023-08-08T08:58:15;17.80;99.90
35962;DHT22;22044;48.298;10.008;2023-08-08T09:01:02;17.90;99.90
35962;DHT22;22044;48.298;10.008;2023-08-08T09:03:48;18.10;99.90
35962;DHT22;22044;48.298;10.008;2023-08-08T09:06:33;18.00;99.90
35962;DHT22;22044;48.298;10.008;2023-08-08T09:09:19;18.00;99.90
35962;DHT22;22044;48.298;10.008;2023-08-08T09:12:09;18.10;99.90
35962;DHT22;22044;48.298;10.008;2023-08-08T09:14:54;18.10;99.90
35962;DHT22;22044;48.298;10.008;2023-08-08T09:17:41;18.10;99.90
35962;DHT22;22044;48.298;10.008;2023-08-08T09:20:27;18.30;99.90
35962;DHT22;22044;48.298;10.008;2023-08-08T09:23:13;18.40;99.90
35962;DHT22;22044;48.298;10.008;2023-08-08T09:25:59;18.50;99.90
35962;DHT22;22044;48.298;10.008;2023-08-08T09:28:46;18.50;99.90
35962;DHT22;22044;48.298;10.008;2023-08-08T09:31:34;18.60;99.90
35962;DHT22;22044;48.298;10.008;2023-08-08T09:34:24;18.60;99.90
35962;DHT22;22044;48.298;10.008;2023-08-08T09:37:10;18.70;99.90
35962;DHT22;22044;48.298;10.008;2023-08-08T09:39:56;18.60;99.90
35962;DHT22;22044;48.298;10.008;2023-08-08T09:42:42;18.60;99.90
35962;DHT22;22044;48.298;10.008;2023-08-08T09:45:36;18.80;99.90
35962;DHT22;22044;48.298;10.008;2023-08-08T09:48:23;18.80;99.90
35962;DHT22;22044;48.298;10.008;2023-08-08T09:51:09;19.00;99.90
35962;DHT22;22044;48.298;10.008;2023-08-08T09:53:54;19.00;99.90
35962;DHT22;22044;48.298;10.008;2023-08-08T09:56:40;18.90;99.90
35962;DHT22;22044;48.298;10.008;2023-08-08T09:59:27;19.00;99.90
35962;DHT22;22044;48.298;10.008;2023-08-08T10:02:15;19.20;99.90
35962;DHT22;22044;48.298;10.008;2023-08-08T10:05:02;19.20;99.90
35962;DHT22;22044;48.298;10.008;2023-08-08T10:07:48;19.30;99.90
35962;DHT22;22044;48.298;10.008;2023-08-08T10:10:34;19.30;99.90
35962;DHT22;22044;48.298;10.008;2023-08-08T10:13:20;19.30;99.90
35962;DHT22;22044;48.298;10.008;2023-08-08T10:16:08;19.30;99.90
35962;DHT22;22044;48.298;10.008;2023-08-08T10:19:01;19.40;99.90
35962;DHT22;22044;48.298;10.008;2023-08-08T10:21:46;19.40;99.90
35962;DHT22;22044;48.298;10.008;2023-08-08T10:24:33;19.50;99.90
35962;DHT22;22044;48.298;10.008;2023-08-08T10:27:31;19.40;99.90
35962;DHT22;22044;48.298;10.008;2023-08-08T10:30:17;19.20;99.90
35962;DHT22;22044;48.298;10.008;2023-08-08T10:33:03;19.20;99.90
35962;DHT22;22044;48.298;10.008;2023-08-08T10:36:00;19.10;99.90
35962;DHT22;22044;48.298;10.008;2023-08-08T10:38:47;19.30;99.90
35962;DHT22;22044;48.298;10.008;2023-08-08T10:41:44;19.50;99.90
35962;DHT22;22044;48.298;10.008;2023-08-08T10:44:30;19.50;99.90
35962;DHT22;22044;48.298;10.008;2023-08-08T10:47:16;19.80;99.90
35962;DHT22;22044;48.298;10.008;2023-08-08T10:50:04;19.90;99.90
35962;DHT22;22044;48.298;10.008;2023-08-08T10:52:53;19.90;99.90
35962;DHT22;22044;48.298;10.008;2023-08-08T10:55:39;20.10;99.90
35962;DHT22;22044;48.298;10.008;2023-08-08T10:58:35;20.20;99.90
35962;DHT22;22044;48.298;10.008;2023-08-08T11:01:24;20.30;99.90
35962;DHT22;22044;48.298;10.008;2023-08-08T11:04:11;20.30;99.90
35962;DHT22;22044;48.298;10.008;2023-08-08T11:06:56;20.30;99.90
35962;DHT22;22044;48.298;10.008;2023-08-08T11:09:43;20.40;99.90
35962;DHT22;22044;48.298;10.008;2023-08-08T11:12:29;20.50;99.90
35962;DHT22;22044;48.298;10.008;2023-08-08T11:15:15;20.60;99.90
35962;DHT22;22044;48.298;10.008;2023-08-08T11:18:01;20.50;99.90
35962;DHT22;22044;48.298;10.008;2023-08-08T11:20:48;20.50;99.90
35962;DHT22;22044;48.298;10.008;2023-08-08T11:23:34;20.40;99.90
35962;DHT22;22044;48.298;10.008;2023-08-08T11:26:23;20.50;99.90
35962;DHT22;22044;48.298;10.008;2023-08-08T11:29:11;20.60;99.90
35962;DHT22;22044;48.298;10.008;2023-08-08T11:31:56;20.60;99.90
35962;DHT22;22044;48.298;10.008;2023-08-08T11:34:42;20.40;99.90
35962;DHT22;22044;48.298;10.008;2023-08-08T11:37:28;20.30;99.90
35962;DHT22;22044;48.298;10.008;2023-08-08T11:40:14;20.30;99.90
35962;DHT22;22044;48.298;10.008;2023-08-08T11:43:07;20.30;99.90
35962;DHT22;22044;48.298;10.008;2023-08-08T11:45:55;20.10;99.90
35962;DHT22;22044;48.298;10.008;2023-08-08T11:48:41;20.10;99.90
35962;DHT22;22044;48.298;10.008;2023-08-08T11:51:28;20.30;99.90
35962;DHT22;22044;48.298;10.008;2023-08-08T11:54:14;20.30;99.90
35962;DHT22;22044;48.298;10.008;2023-08-08T11:57:01;20.40;99.90
35962;DHT22;22044;48.298;10.008;2023-08-08T11:59:56;20.60;99.90
35962;DHT22;22044;48.298;10.008;2023-08-08T12:02:44;20.70;99.90
35962;DHT22;22044;48.298;10.008;2023-08-08T12:05:36;20.60;99.90
35962;DHT22;22044;48.298;10.008;2023-08-08T12:08:22;20.90;99.90
35962;DHT22;22044;48.298;10.008;2023-08-08T12:11:11;21.10;99.90
35962;DHT22;22044;48.298;10.008;2023-08-08T12:13:59;21.10;99.90
35962;DHT22;22044;48.298;10.008;2023-08-08T12:16:46;21.00;99.90
35962;DHT22;22044;48.298;10.008;2023-08-08T12:19:32;20.90;99.90
35962;DHT22;22044;48.298;10.008;2023-08-08T12:22:17;20.80;99.90
35962;DHT22;22044;48.298;10.008;2023-08-08T12:25:04;20.80;99.90
35962;DHT22;22044;48.298;10.008;2023-08-08T12:27:51;20.80;99.90
35962;DHT22;22044;48.298;10.008;2023-08-08T12:30:41;20.60;99.90
35962;DHT22;22044;48.298;10.008;2023-08-08T12:33:28;20.50;99.90
35962;DHT22;22044;48.298;10.008;2023-08-08T12:36:13;20.50;99.90
35962;DHT22;22044;48.298;10.008;2023-08-08T12:38:59;20.70;99.90
35962;DHT22;22044;48.298;10.008;2023-08-08T12:41:45;20.80;99.90
35962;DHT22;22044;48.298;10.008;2023-08-08T12:44:30;20.80;99.90
35962;DHT22;22044;48.298;10.008;2023-08-08T12:47:16;20.80;99.90
35962;DHT22;22044;48.298;10.008;2023-08-08T12:50:03;20.70;99.90
35962;DHT22;22044;48.298;10.008;2023-08-08T12:52:49;20.90;99.90
35962;DHT22;22044;48.298;10.008;2023-08-08T12:55:38;21.10;99.90
35962;DHT22;22044;48.298;10.008;2023-08-08T12:58:27;21.30;99.90
35962;DHT22;22044;48.298;10.008;2023-08-08T13:01:13;21.40;99.90
35962;DHT22;22044;48.298;10.008;2023-08-08T13:03:59;21.80;99.90
35962;DHT22;22044;48.298;10.008;2023-08-08T13:06:48;21.80;99.90
35962;DHT22;22044;48.298;10.008;2023-08-08T13:09:35;21.90;99.90
35962;DHT22;22044;48.298;10.008;2023-08-08T13:12:27;21.90;99.90
35962;DHT22;22044;48.298;10.008;2023-08-08T13:15:13;21.20;99.90
35962;DHT22;22044;48.298;10.008;2023-08-08T13:17:59;20.70;99.90
35962;DHT22;22044;48.298;10.008;2023-08-08T13:20:47;20.80;99.90
35962;DHT22;22044;48.298;10.008;2023-08-08T13:23:34;20.90;99.90
35962;DHT22;22044;48.298;10.008;2023-08-08T13:26:20;20.90;99.90
35962;DHT22;22044;48.298;10.008;2023-08-08T13:29:07;21.10;99.90
35962;DHT22;22044;48.298;10.008;2023-08-08T13:31:54;21.20;99.90
35962;DHT22;22044;48.298;10.008;2023-08-08T13:34:40;21.20;99.90
35962;DHT22;22044;48.298;10.008;2023-08-08T13:37:26;21.20;99.90
35962;DHT22;22044;48.298;10.008;2023-08-08T13:40:16;21.10;99.90
35962;DHT22;22044;48.298;10.008;2023-08-08T13:43:01;21.20;99.90
35962;DHT22;22044;48.298;10.008;2023-08-08T13:45:48;21.20;99.90
35962;DHT22;22044;48.298;10.008;2023-08-08T13:48:33;21.40;99.90
35962;DHT22;22044;48.298;10.008;2023-08-08T13:51:20;21.50;99.90
35962;DHT22;22044;48.298;10.008;2023-08-08T13:54:07;21.70;99.90
35962;DHT22;22044;48.298;10.008;2023-08-08T13:56:54;21.30;99.90
35962;DHT22;22044;48.298;10.008;2023-08-08T13:59:40;21.60;99.90
35962;DHT22;22044;48.298;10.008;2023-08-08T14:02:26;21.70;99.90
35962;DHT22;22044;48.298;10.008;2023-08-08T14:05:12;21.70;99.90
35962;DHT22;22044;48.298;10.008;2023-08-08T14:07:59;21.70;99.90
35962;DHT22;22044;48.298;10.008;2023-08-08T14:10:45;21.50;99.90
35962;DHT22;22044;48.298;10.008;2023-08-08T14:13:31;21.50;99.90
35962;DHT22;22044;48.298;10.008;2023-08-08T14:16:18;21.30;99.90
35962;DHT22;22044;48.298;10.008;2023-08-08T14:19:04;21.30;99.90
35962;DHT22;22044;48.298;10.008;2023-08-08T14:21:50;21.30;99.90
35962;DHT22;22044;48.298;10.008;2023-08-08T14:24:36;21.20;99.90
35962;DHT22;22044;48.298;10.008;2023-08-08T14:27:22;20.90;99.90
35962;DHT22;22044;48.298;10.008;2023-08-08T14:30:11;20.80;99.90
35962;DHT22;22044;48.298;10.008;2023-08-08T14:32:57;20.80;99.90
35962;DHT22;22044;48.298;10.008;2023-08-08T14:35:45;20.90;99.90
35962;DHT22;22044;48.298;10.008;2023-08-08T14:38:35;21.00;99.90
35962;DHT22;22044;48.298;10.008;2023-08-08T14:41:20;20.90;99.90
35962;DHT22;22044;48.298;10.008;2023-08-08T14:44:06;20.90;99.90
35962;DHT22;22044;48.298;10.008;2023-08-08T14:46:53;20.90;99.90
35962;DHT22;22044;48.298;10.008;2023-08-08T14:49:38;20.90;99.90
35962;DHT22;22044;48.298;10.008;2023-08-08T14:52:24;20.80;99.90
35962;DHT22;22044;48.298;10.008;2023-08-08T14:55:10;20.90;99.90
35962;DHT22;22044;48.298;10.008;2023-08-08T14:57:56;21.10;99.90
35962;DHT22;22044;48.298;10.008;2023-08-08T15:00:42;21.20;99.90
35962;DHT22;22044;48.298;10.008;2023-08-08T15:03:29;21.20;99.90
35962;DHT22;22044;48.298;10.008;2023-08-08T15:06:14;21.20;99.90
35962;DHT22;22044;48.298;10.008;2023-08-08T15:09:00;20.90;99.90
35962;DHT22;22044;48.298;10.008;2023-08-08T15:11:46;20.70;99.90
35962;DHT22;22044;48.298;10.008;2023-08-08T15:14:32;20.70;99.90
35962;DHT22;22044;48.298;10.008;2023-08-08T15:17:19;20.80;99.90
35962;DHT22;22044;48.298;10.008;2023-08-08T15:20:08;20.70;99.90
35962;DHT22;22044;48.298;10.008;2023-08-08T15:22:55;20.50;99.90
35962;DHT22;22044;48.298;10.008;2023-08-08T15:25:41;20.50;99.90
35962;DHT22;22044;48.298;10.008;2023-08-08T15:28:27;20.40;99.90
35962;DHT22;22044;48.298;10.008;2023-08-08T15:31:13;20.40;99.90
35962;DHT22;22044;48.298;10.008;2023-08-08T15:34:00;20.30;99.90
35962;DHT22;22044;48.298;10.008;2023-08-08T15:36:47;20.40;99.90
35962;DHT22;22044;48.298;10.008;2023-08-08T15:39:33;20.50;99.90
35962;DHT22;22044;48.298;10.008;2023-08-08T15:42:19;20.50;99.90
35962;DHT22;22044;48.298;10.008;2023-08-08T15:45:05;20.40;99.90
35962;DHT22;22044;48.298;10.008;2023-08-08T15:47:51;20.50;99.90
35962;DHT22;22044;48.298;10.008;2023-08-08T15:50:37;20.40;99.90
35962;DHT22;22044;48.298;10.008;2023-08-08T15:53:24;20.50;99.90
35962;DHT22;22044;48.298;10.008;2023-08-08T15:56:12;20.50;99.90
35962;DHT22;22044;48.298;10.008;2023-08-08T15:58:58;20.60;99.90
35962;DHT22;22044;48.298;10.008;2023-08-08T16:01:43;20.70;99.90
35962;DHT22;22044;48.298;10.008;2023-08-08T16:04:29;20.70;99.90
35962;DHT22;22044;48.298;10.008;2023-08-08T16:07:14;20.70;99.90
35962;DHT22;22044;48.298;10.008;2023-08-08T16:10:04;20.60;99.90
35962;DHT22;22044;48.298;10.008;2023-08-08T16:12:51;20.60;99.90
35962;DHT22;22044;48.298;10.008;2023-08-08T16:15:37;20.50;99.90
35962;DHT22;22044;48.298;10.008;2023-08-08T16:18:23;20.50;99.90
35962;DHT22;22044;48.298;10.008;2023-08-08T16:21:08;20.40;99.90
35962;DHT22;22044;48.298;10.008;2023-08-08T16:23:54;20.30;99.90
35962;DHT22;22044;48.298;10.008;2023-08-08T16:26:41;20.30;99.90
35962;DHT22;22044;48.298;10.008;2023-08-08T16:29:27;20.30;99.90
35962;DHT22;22044;48.298;10.008;2023-08-08T16:32:12;20.30;99.90
35962;DHT22;22044;48.298;10.008;2023-08-08T16:34:58;20.30;99.90
35962;DHT22;22044;48.298;10.008;2023-08-08T16:37:44;20.20;99.90
35962;DHT22;22044;48.298;10.008;2023-08-08T16:40:29;20.10;99.90
35962;DHT22;22044;48.298;10.008;2023-08-08T16:43:17;20.10;99.90
35962;DHT22;22044;48.298;10.008;2023-08-08T16:46:03;20.10;99.90
35962;DHT22;22044;48.298;10.008;2023-08-08T16:48:48;20.10;99.90
35962;DHT22;22044;48.298;10.008;2023-08-08T16:51:34;20.10;99.90
35962;DHT22;22044;48.298;10.008;2023-08-08T16:54:20;20.00;99.90
35962;DHT22;22044;48.298;10.008;2023-08-08T16:57:06;20.00;99.90
35962;DHT22;22044;48.298;10.008;2023-08-08T16:59:53;19.90;99.90
35962;DHT22;22044;48.298;10.008;2023-08-08T17:02:39;19.90;99.90
35962;DHT22;22044;48.298;10.008;2023-08-08T17:05:24;19.90;99.90
35962;DHT22;22044;48.298;10.008;2023-08-08T17:08:10;19.80;99.90
35962;DHT22;22044;48.298;10.008;2023-08-08T17:10:56;19.80;99.90
35962;DHT22;22044;48.298;10.008;2023-08-08T17:13:41;19.70;99.90